sensor_id;sensor_type;location;lat;lon;timestamp;P1;durP1;ratioP1;P2;durP2;ratioP2
1000;SDS011;489;47.806;12.858;2023-04-16T00:01:17;4.30;;;3.10;;
1000;SDS011;489;47.806;12.858;2023-04-16T00:03:18;2.93;;;2.63;;
1000;SDS011;489;47.806;12.858;2023-04-16T00:05:21;3.90;;;3.10;;
1000;SDS011;489;47.806;12.858;2023-04-16T00:07:23;5.20;;;2.77;;
1000;SDS011;489;47.806;12.858;2023-04-16T00:09:26;2.93;;;2.40;;
1000;SDS011;489;47.806;12.858;2023-04-16T00:11:28;3.40;;;3.07;;
1000;SDS011;489;47.806;12.858;2023-04-16T00:13:30;3.33;;;2.87;;
1000;SDS011;489;47.806;12.858;2023-04-16T00:15:33;2.67;;;2.47;;
1000;SDS011;489;47.806;12.858;2023-04-16T00:17:35;3.10;;;2.80;;
1000;SDS011;489;47.806;12.858;2023-04-16T00:19:37;3.30;;;3.00;;
1000;SDS011;489;47.806;12.858;2023-04-16T00:21:39;3.80;;;3.33;;
1000;SDS011;489;47.806;12.858;2023-04-16T00:23:41;3.10;;;2.80;;
1000;SDS011;489;47.806;12.858;2023-04-16T00:25:48;2.67;;;2.47;;
1000;SDS011;489;47.806;12.858;2023-04-16T00:27:49;2.53;;;2.33;;
1000;SDS011;489;47.806;12.858;2023-04-16T00:29:51;2.80;;;2.60;;
1000;SDS011;489;47.806;12.858;2023-04-16T00:31:53;2.17;;;2.00;;
1000;SDS011;489;47.806;12.858;2023-04-16T00:33:57;2.20;;;2.00;;
1000;SDS011;489;47.806;12.858;2023-04-16T00:36:00;2.60;;;2.40;;
1000;SDS011;489;47.806;12.858;2023-04-16T00:38:03;2.53;;;2.33;;
1000;SDS011;489;47.806;12.858;2023-04-16T00:40:06;2.40;;;2.20;;
1000;SDS011;489;47.806;12.858;2023-04-16T00:42:10;2.10;;;1.83;;
1000;SDS011;489;47.806;12.858;2023-04-16T00:44:12;2.30;;;2.17;;
1000;SDS011;489;47.806;12.858;2023-04-16T00:46:14;1.63;;;1.50;;
1000;SDS011;489;47.806;12.858;2023-04-16T00:48:16;2.20;;;2.07;;
1000;SDS011;489;47.806;12.858;2023-04-16T00:50:18;1.97;;;1.80;;
1000;SDS011;489;47.806;12.858;2023-04-16T00:52:21;2.40;;;2.20;;
1000;SDS011;489;47.806;12.858;2023-04-16T00:54:24;2.80;;;2.53;;
1000;SDS011;489;47.806;12.858;2023-04-16T00:56:45;2.50;;;2.20;;
1000;SDS011;489;47.806;12.858;2023-04-16T00:58:50;2.10;;;2.00;;
1000;SDS011;489;47.806;12.858;2023-04-16T01:00:52;1.90;;;1.80;;
1000;SDS011;489;47.806;12.858;2023-04-16T01:02:55;2.00;;;1.87;;
1000;SDS011;489;47.806;12.858;2023-04-16T01:04:57;1.80;;;1.70;;
1000;SDS011;489;47.806;12.858;2023-04-16T01:06:59;1.50;;;1.40;;
1000;SDS011;489;47.806;12.858;2023-04-16T01:09:01;1.70;;;1.60;;
1000;SDS011;489;47.806;12.858;2023-04-16T01:11:04;1.80;;;1.70;;
1000;SDS011;489;47.806;12.858;2023-04-16T01:13:06;1.67;;;1.57;;
1000;SDS011;489;47.806;12.858;2023-04-16T01:15:10;1.80;;;1.70;;
1000;SDS011;489;47.806;12.858;2023-04-16T01:17:12;1.60;;;1.50;;
1000;SDS011;489;47.806;12.858;2023-04-16T01:19:14;1.20;;;1.20;;
1000;SDS011;489;47.806;12.858;2023-04-16T01:21:18;1.60;;;1.50;;
1000;SDS011;489;47.806;12.858;2023-04-16T01:23:20;1.53;;;1.43;;
1000;SDS011;489;47.806;12.858;2023-04-16T01:25:22;1.77;;;1.67;;
1000;SDS011;489;47.806;12.858;2023-04-16T01:27:25;1.57;;;1.47;;
1000;SDS011;489;47.806;12.858;2023-04-16T01:29:27;1.17;;;1.17;;
1000;SDS011;489;47.806;12.858;2023-04-16T01:31:34;1.53;;;1.43;;
1000;SDS011;489;47.806;12.858;2023-04-16T01:33:44;1.53;;;1.43;;
1000;SDS011;489;47.806;12.858;2023-04-16T01:35:46;1.17;;;1.10;;
1000;SDS011;489;47.806;12.858;2023-04-16T01:37:50;1.37;;;1.30;;
1000;SDS011;489;47.806;12.858;2023-04-16T01:39:53;1.40;;;1.30;;
1000;SDS011;489;47.806;12.858;2023-04-16T01:41:55;1.10;;;1.00;;
1000;SDS011;489;47.806;12.858;2023-04-16T01:43:57;1.30;;;1.20;;
1000;SDS011;489;47.806;12.858;2023-04-16T01:46:07;1.60;;;1.30;;
1000;SDS011;489;47.806;12.858;2023-04-16T01:48:14;1.30;;;1.20;;
1000;SDS011;489;47.806;12.858;2023-04-16T01:50:16;1.50;;;1.40;;
1000;SDS011;489;47.806;12.858;2023-04-16T01:52:18;1.70;;;1.60;;
1000;SDS011;489;47.806;12.858;2023-04-16T01:54:21;1.70;;;1.60;;
1000;SDS011;489;47.806;12.858;2023-04-16T01:56:24;1.13;;;1.10;;
1000;SDS011;489;47.806;12.858;2023-04-16T01:58:27;1.67;;;1.57;;
1000;SDS011;489;47.806;12.858;2023-04-16T02:00:30;1.60;;;1.40;;
1000;SDS011;489;47.806;12.858;2023-04-16T02:02:33;1.60;;;1.50;;
1000;SDS011;489;47.806;12.858;2023-04-16T02:04:35;1.90;;;1.57;;
1000;SDS011;489;47.806;12.858;2023-04-16T02:06:38;1.83;;;1.33;;
1000;SDS011;489;47.806;12.858;2023-04-16T02:08:40;1.27;;;1.20;;
1000;SDS011;489;47.806;12.858;2023-04-16T02:10:45;1.50;;;1.40;;
1000;SDS011;489;47.806;12.858;2023-04-16T02:12:47;1.80;;;1.70;;
1000;SDS011;489;47.806;12.858;2023-04-16T02:14:50;2.00;;;1.83;;
1000;SDS011;489;47.806;12.858;2023-04-16T02:16:53;1.30;;;1.20;;
1000;SDS011;489;47.806;12.858;2023-04-16T02:19:09;0.90;;;0.90;;
1000;SDS011;489;47.806;12.858;2023-04-16T02:21:11;1.40;;;1.33;;
1000;SDS011;489;47.806;12.858;2023-04-16T02:23:14;1.60;;;1.50;;
1000;SDS011;489;47.806;12.858;2023-04-16T02:25:17;1.37;;;1.27;;
1000;SDS011;489;47.806;12.858;2023-04-16T02:27:20;2.00;;;1.30;;
1000;SDS011;489;47.806;12.858;2023-04-16T02:29:27;1.30;;;1.20;;
1000;SDS011;489;47.806;12.858;2023-04-16T02:31:38;1.13;;;1.03;;
1000;SDS011;489;47.806;12.858;2023-04-16T02:33:42;1.33;;;1.23;;
1000;SDS011;489;47.806;12.858;2023-04-16T02:35:44;1.20;;;1.20;;
1000;SDS011;489;47.806;12.858;2023-04-16T02:38:09;0.90;;;0.90;;
1000;SDS011;489;47.806;12.858;2023-04-16T02:40:11;0.80;;;0.80;;
1000;SDS011;489;47.806;12.858;2023-04-16T02:42:15;0.60;;;0.60;;
1000;SDS011;489;47.806;12.858;2023-04-16T02:44:18;0.90;;;0.90;;
1000;SDS011;489;47.806;12.858;2023-04-16T02:46:21;0.83;;;0.80;;
1000;SDS011;489;47.806;12.858;2023-04-16T02:48:23;0.63;;;0.63;;
1000;SDS011;489;47.806;12.858;2023-04-16T02:50:25;0.70;;;0.70;;
1000;SDS011;489;47.806;12.858;2023-04-16T02:52:28;0.70;;;0.70;;
1000;SDS011;489;47.806;12.858;2023-04-16T02:54:31;0.70;;;0.70;;
1000;SDS011;489;47.806;12.858;2023-04-16T02:56:33;0.80;;;0.80;;
1000;SDS011;489;47.806;12.858;2023-04-16T02:58:35;0.70;;;0.70;;
1000;SDS011;489;47.806;12.858;2023-04-16T03:00:38;0.90;;;0.90;;
1000;SDS011;489;47.806;12.858;2023-04-16T03:02:41;0.70;;;0.70;;
1000;SDS011;489;47.806;12.858;2023-04-16T03:04:42;0.60;;;0.60;;
1000;SDS011;489;47.806;12.858;2023-04-16T03:06:47;1.10;;;0.83;;
1000;SDS011;489;47.806;12.858;2023-04-16T03:08:49;0.60;;;0.60;;
1000;SDS011;489;47.806;12.858;2023-04-16T03:10:51;0.60;;;0.60;;
1000;SDS011;489;47.806;12.858;2023-04-16T03:12:54;0.80;;;0.60;;
1000;SDS011;489;47.806;12.858;2023-04-16T03:14:56;0.53;;;0.53;;
1000;SDS011;489;47.806;12.858;2023-04-16T03:17:00;1.10;;;1.10;;
1000;SDS011;489;47.806;12.858;2023-04-16T03:19:02;0.60;;;0.60;;
1000;SDS011;489;47.806;12.858;2023-04-16T03:21:04;1.10;;;0.70;;
1000;SDS011;489;47.806;12.858;2023-04-16T03:23:06;0.50;;;0.50;;
1000;SDS011;489;47.806;12.858;2023-04-16T03:25:09;0.70;;;0.70;;
1000;SDS011;489;47.806;12.858;2023-04-16T03:27:10;0.67;;;0.67;;
1000;SDS011;489;47.806;12.858;2023-04-16T03:29:13;0.60;;;0.60;;
1000;SDS011;489;47.806;12.858;2023-04-16T03:31:15;0.50;;;0.50;;
1000;SDS011;489;47.806;12.858;2023-04-16T03:33:18;0.80;;;0.80;;
1000;SDS011;489;47.806;12.858;2023-04-16T03:35:20;0.70;;;0.70;;
1000;SDS011;489;47.806;12.858;2023-04-16T03:37:22;0.50;;;0.50;;
1000;SDS011;489;47.806;12.858;2023-04-16T03:39:24;0.43;;;0.43;;
1000;SDS011;489;47.806;12.858;2023-04-16T03:41:27;0.40;;;0.40;;
1000;SDS011;489;47.806;12.858;2023-04-16T03:43:28;0.40;;;0.40;;
1000;SDS011;489;47.806;12.858;2023-04-16T03:45:49;0.47;;;0.47;;
1000;SDS011;489;47.806;12.858;2023-04-16T03:47:54;0.50;;;0.40;;
1000;SDS011;489;47.806;12.858;2023-04-16T03:50:00;0.57;;;0.40;;
1000;SDS011;489;47.806;12.858;2023-04-16T03:52:02;0.57;;;0.47;;
1000;SDS011;489;47.806;12.858;2023-04-16T03:54:04;0.67;;;0.50;;
1000;SDS011;489;47.806;12.858;2023-04-16T03:56:07;0.50;;;0.50;;
1000;SDS011;489;47.806;12.858;2023-04-16T03:58:08;0.60;;;0.47;;
1000;SDS011;489;47.806;12.858;2023-04-16T04:00:11;0.60;;;0.40;;
1000;SDS011;489;47.806;12.858;2023-04-16T04:02:27;0.50;;;0.50;;
1000;SDS011;489;47.806;12.858;2023-04-16T04:04:29;0.90;;;0.90;;
1000;SDS011;489;47.806;12.858;2023-04-16T04:06:32;0.40;;;0.40;;
1000;SDS011;489;47.806;12.858;2023-04-16T04:08:35;0.30;;;0.30;;
1000;SDS011;489;47.806;12.858;2023-04-16T04:10:38;0.30;;;0.30;;
1000;SDS011;489;47.806;12.858;2023-04-16T04:12:43;0.50;;;0.50;;
1000;SDS011;489;47.806;12.858;2023-04-16T04:14:46;0.50;;;0.40;;
1000;SDS011;489;47.806;12.858;2023-04-16T04:16:48;0.43;;;0.43;;
1000;SDS011;489;47.806;12.858;2023-04-16T04:18:50;0.40;;;0.40;;
1000;SDS011;489;47.806;12.858;2023-04-16T04:20:52;0.60;;;0.57;;
1000;SDS011;489;47.806;12.858;2023-04-16T04:23:00;0.50;;;0.50;;
1000;SDS011;489;47.806;12.858;2023-04-16T04:25:02;0.40;;;0.40;;
1000;SDS011;489;47.806;12.858;2023-04-16T04:27:06;0.50;;;0.50;;
1000;SDS011;489;47.806;12.858;2023-04-16T04:29:08;0.60;;;0.50;;
1000;SDS011;489;47.806;12.858;2023-04-16T04:31:10;0.40;;;0.40;;
1000;SDS011;489;47.806;12.858;2023-04-16T04:33:12;0.63;;;0.63;;
1000;SDS011;489;47.806;12.858;2023-04-16T04:35:15;1.20;;;1.10;;
1000;SDS011;489;47.806;12.858;2023-04-16T04:37:17;0.53;;;0.47;;
1000;SDS011;489;47.806;12.858;2023-04-16T04:39:20;7.40;;;4.80;;
1000;SDS011;489;47.806;12.858;2023-04-16T04:41:23;1.67;;;1.00;;
1000;SDS011;489;47.806;12.858;2023-04-16T04:43:27;3.13;;;2.10;;
1000;SDS011;489;47.806;12.858;2023-04-16T04:45:28;0.90;;;0.73;;
1000;SDS011;489;47.806;12.858;2023-04-16T04:47:31;1.70;;;1.20;;
1000;SDS011;489;47.806;12.858;2023-04-16T04:49:33;2.30;;;1.70;;
1000;SDS011;489;47.806;12.858;2023-04-16T04:51:36;1.73;;;1.13;;
1000;SDS011;489;47.806;12.858;2023-04-16T04:53:38;0.57;;;0.50;;
1000;SDS011;489;47.806;12.858;2023-04-16T04:55:41;0.90;;;0.90;;
1000;SDS011;489;47.806;12.858;2023-04-16T04:57:44;0.80;;;0.80;;
1000;SDS011;489;47.806;12.858;2023-04-16T04:59:45;3.93;;;2.80;;
1000;SDS011;489;47.806;12.858;2023-04-16T05:01:48;2.80;;;1.87;;
1000;SDS011;489;47.806;12.858;2023-04-16T05:03:50;0.93;;;0.93;;
1000;SDS011;489;47.806;12.858;2023-04-16T05:05:55;0.60;;;0.60;;
1000;SDS011;489;47.806;12.858;2023-04-16T05:07:57;1.57;;;1.20;;
1000;SDS011;489;47.806;12.858;2023-04-16T05:09:59;4.67;;;3.07;;
1000;SDS011;489;47.806;12.858;2023-04-16T05:12:02;0.63;;;0.63;;
1000;SDS011;489;47.806;12.858;2023-04-16T05:14:04;0.50;;;0.50;;
1000;SDS011;489;47.806;12.858;2023-04-16T05:16:06;0.53;;;0.53;;
1000;SDS011;489;47.806;12.858;2023-04-16T05:18:08;0.70;;;0.70;;
1000;SDS011;489;47.806;12.858;2023-04-16T05:20:10;1.90;;;0.60;;
1000;SDS011;489;47.806;12.858;2023-04-16T05:22:12;2.90;;;1.50;;
1000;SDS011;489;47.806;12.858;2023-04-16T05:24:18;1.07;;;0.70;;
1000;SDS011;489;47.806;12.858;2023-04-16T05:26:20;0.87;;;0.60;;
1000;SDS011;489;47.806;12.858;2023-04-16T05:28:24;0.63;;;0.63;;
1000;SDS011;489;47.806;12.858;2023-04-16T05:30:26;1.00;;;0.90;;
1000;SDS011;489;47.806;12.858;2023-04-16T05:32:28;1.60;;;0.90;;
1000;SDS011;489;47.806;12.858;2023-04-16T05:34:30;0.70;;;0.70;;
1000;SDS011;489;47.806;12.858;2023-04-16T05:36:32;0.90;;;0.80;;
1000;SDS011;489;47.806;12.858;2023-04-16T05:38:34;0.93;;;0.87;;
1000;SDS011;489;47.806;12.858;2023-04-16T05:40:36;1.27;;;1.00;;
1000;SDS011;489;47.806;12.858;2023-04-16T05:42:38;1.53;;;1.00;;
1000;SDS011;489;47.806;12.858;2023-04-16T05:44:41;0.50;;;0.47;;
1000;SDS011;489;47.806;12.858;2023-04-16T05:46:43;0.60;;;0.60;;
1000;SDS011;489;47.806;12.858;2023-04-16T05:48:45;0.70;;;0.53;;
1000;SDS011;489;47.806;12.858;2023-04-16T05:50:48;0.70;;;0.70;;
1000;SDS011;489;47.806;12.858;2023-04-16T05:52:50;1.13;;;1.00;;
1000;SDS011;489;47.806;12.858;2023-04-16T05:54:52;1.00;;;0.57;;
1000;SDS011;489;47.806;12.858;2023-04-16T05:56:55;0.80;;;0.50;;
1000;SDS011;489;47.806;12.858;2023-04-16T05:58:56;0.70;;;0.70;;
1000;SDS011;489;47.806;12.858;2023-04-16T06:01:00;1.00;;;0.90;;
1000;SDS011;489;47.806;12.858;2023-04-16T06:03:02;0.73;;;0.60;;
1000;SDS011;489;47.806;12.858;2023-04-16T06:05:04;0.50;;;0.50;;
1000;SDS011;489;47.806;12.858;2023-04-16T06:07:07;0.60;;;0.60;;
1000;SDS011;489;47.806;12.858;2023-04-16T06:09:09;0.57;;;0.57;;
1000;SDS011;489;47.806;12.858;2023-04-16T06:11:12;0.40;;;0.40;;
1000;SDS011;489;47.806;12.858;2023-04-16T06:13:14;0.77;;;0.63;;
1000;SDS011;489;47.806;12.858;2023-04-16T06:15:16;0.63;;;0.50;;
1000;SDS011;489;47.806;12.858;2023-04-16T06:17:19;0.40;;;0.40;;
1000;SDS011;489;47.806;12.858;2023-04-16T06:19:22;0.50;;;0.30;;
1000;SDS011;489;47.806;12.858;2023-04-16T06:21:24;0.40;;;0.40;;
1000;SDS011;489;47.806;12.858;2023-04-16T06:23:26;0.57;;;0.53;;
1000;SDS011;489;47.806;12.858;2023-04-16T06:25:28;0.87;;;0.60;;
1000;SDS011;489;47.806;12.858;2023-04-16T06:27:32;0.80;;;0.80;;
1000;SDS011;489;47.806;12.858;2023-04-16T06:29:34;0.93;;;0.90;;
1000;SDS011;489;47.806;12.858;2023-04-16T06:31:36;1.17;;;1.07;;
1000;SDS011;489;47.806;12.858;2023-04-16T06:33:39;1.20;;;1.07;;
1000;SDS011;489;47.806;12.858;2023-04-16T06:35:42;1.50;;;1.27;;
1000;SDS011;489;47.806;12.858;2023-04-16T06:37:43;1.23;;;1.10;;
1000;SDS011;489;47.806;12.858;2023-04-16T06:39:45;1.63;;;1.20;;
1000;SDS011;489;47.806;12.858;2023-04-16T06:41:47;0.83;;;0.83;;
1000;SDS011;489;47.806;12.858;2023-04-16T06:43:51;1.27;;;1.10;;
1000;SDS011;489;47.806;12.858;2023-04-16T06:45:53;1.27;;;1.17;;
1000;SDS011;489;47.806;12.858;2023-04-16T06:47:55;1.07;;;1.03;;
1000;SDS011;489;47.806;12.858;2023-04-16T06:49:59;0.80;;;0.80;;
1000;SDS011;489;47.806;12.858;2023-04-16T06:52:01;1.97;;;1.87;;
1000;SDS011;489;47.806;12.858;2023-04-16T06:54:03;1.33;;;1.23;;
1000;SDS011;489;47.806;12.858;2023-04-16T06:56:05;1.37;;;1.27;;
1000;SDS011;489;47.806;12.858;2023-04-16T06:58:08;1.90;;;1.80;;
1000;SDS011;489;47.806;12.858;2023-04-16T07:00:10;1.83;;;1.70;;
1000;SDS011;489;47.806;12.858;2023-04-16T07:02:12;2.43;;;2.20;;
1000;SDS011;489;47.806;12.858;2023-04-16T07:04:15;2.27;;;2.07;;
1000;SDS011;489;47.806;12.858;2023-04-16T07:06:18;3.23;;;2.17;;
1000;SDS011;489;47.806;12.858;2023-04-16T07:08:21;2.23;;;2.03;;
1000;SDS011;489;47.806;12.858;2023-04-16T07:10:23;1.80;;;1.70;;
1000;SDS011;489;47.806;12.858;2023-04-16T07:12:28;2.17;;;2.03;;
1000;SDS011;489;47.806;12.858;2023-04-16T07:14:30;2.40;;;2.20;;
1000;SDS011;489;47.806;12.858;2023-04-16T07:16:33;2.93;;;2.73;;
1000;SDS011;489;47.806;12.858;2023-04-16T07:18:36;2.93;;;2.73;;
1000;SDS011;489;47.806;12.858;2023-04-16T07:20:38;2.60;;;2.40;;
1000;SDS011;489;47.806;12.858;2023-04-16T07:22:43;2.83;;;2.60;;
1000;SDS011;489;47.806;12.858;2023-04-16T07:24:45;3.47;;;3.17;;
1000;SDS011;489;47.806;12.858;2023-04-16T07:26:47;3.40;;;3.10;;
1000;SDS011;489;47.806;12.858;2023-04-16T07:28:49;2.90;;;2.70;;
1000;SDS011;489;47.806;12.858;2023-04-16T07:30:51;3.17;;;2.97;;
1000;SDS011;489;47.806;12.858;2023-04-16T07:32:55;3.60;;;3.30;;
1000;SDS011;489;47.806;12.858;2023-04-16T07:34:57;4.20;;;3.87;;
1000;SDS011;489;47.806;12.858;2023-04-16T07:37:00;3.67;;;3.33;;
1000;SDS011;489;47.806;12.858;2023-04-16T07:39:03;3.20;;;2.90;;
1000;SDS011;489;47.806;12.858;2023-04-16T07:41:05;3.20;;;2.90;;
1000;SDS011;489;47.806;12.858;2023-04-16T07:43:08;3.50;;;3.20;;
1000;SDS011;489;47.806;12.858;2023-04-16T07:45:10;3.73;;;3.30;;
1000;SDS011;489;47.806;12.858;2023-04-16T07:47:12;3.30;;;3.03;;
1000;SDS011;489;47.806;12.858;2023-04-16T07:49:14;3.83;;;3.53;;
1000;SDS011;489;47.806;12.858;2023-04-16T07:51:17;3.20;;;2.90;;
1000;SDS011;489;47.806;12.858;2023-04-16T07:53:18;3.77;;;3.47;;
1000;SDS011;489;47.806;12.858;2023-04-16T07:55:22;3.60;;;3.30;;
1000;SDS011;489;47.806;12.858;2023-04-16T07:57:24;3.53;;;3.23;;
1000;SDS011;489;47.806;12.858;2023-04-16T07:59:26;3.20;;;3.00;;
1000;SDS011;489;47.806;12.858;2023-04-16T08:01:28;3.37;;;3.13;;
1000;SDS011;489;47.806;12.858;2023-04-16T08:03:30;4.47;;;4.03;;
1000;SDS011;489;47.806;12.858;2023-04-16T08:05:32;3.50;;;3.20;;
1000;SDS011;489;47.806;12.858;2023-04-16T08:07:34;3.97;;;3.67;;
1000;SDS011;489;47.806;12.858;2023-04-16T08:09:35;3.60;;;3.30;;
1000;SDS011;489;47.806;12.858;2023-04-16T08:12:11;3.80;;;3.50;;
1000;SDS011;489;47.806;12.858;2023-04-16T08:14:13;4.23;;;3.83;;
1000;SDS011;489;47.806;12.858;2023-04-16T08:16:15;4.20;;;3.90;;
1000;SDS011;489;47.806;12.858;2023-04-16T08:18:17;3.83;;;3.47;;
1000;SDS011;489;47.806;12.858;2023-04-16T08:20:19;3.33;;;3.03;;
1000;SDS011;489;47.806;12.858;2023-04-16T08:22:21;4.03;;;3.60;;
1000;SDS011;489;47.806;12.858;2023-04-16T08:24:23;3.50;;;3.20;;
1000;SDS011;489;47.806;12.858;2023-04-16T08:26:25;3.90;;;3.60;;
1000;SDS011;489;47.806;12.858;2023-04-16T08:28:28;3.70;;;3.20;;
1000;SDS011;489;47.806;12.858;2023-04-16T08:30:31;3.70;;;3.40;;
1000;SDS011;489;47.806;12.858;2023-04-16T08:32:33;4.00;;;3.60;;
1000;SDS011;489;47.806;12.858;2023-04-16T08:34:35;3.53;;;3.23;;
1000;SDS011;489;47.806;12.858;2023-04-16T08:36:37;4.87;;;4.00;;
1000;SDS011;489;47.806;12.858;2023-04-16T08:38:39;4.70;;;3.90;;
1000;SDS011;489;47.806;12.858;2023-04-16T08:40:41;3.20;;;3.00;;
1000;SDS011;489;47.806;12.858;2023-04-16T08:42:44;3.30;;;3.00;;
1000;SDS011;489;47.806;12.858;2023-04-16T08:44:48;3.80;;;3.50;;
1000;SDS011;489;47.806;12.858;2023-04-16T08:46:53;3.50;;;3.20;;
1000;SDS011;489;47.806;12.858;2023-04-16T08:48:58;3.97;;;3.57;;
1000;SDS011;489;47.806;12.858;2023-04-16T08:51:01;4.00;;;3.70;;
1000;SDS011;489;47.806;12.858;2023-04-16T08:53:03;4.17;;;3.87;;
1000;SDS011;489;47.806;12.858;2023-04-16T08:55:09;3.87;;;3.53;;
1000;SDS011;489;47.806;12.858;2023-04-16T08:57:13;3.30;;;3.00;;
1000;SDS011;489;47.806;12.858;2023-04-16T08:59:23;3.10;;;2.80;;
1000;SDS011;489;47.806;12.858;2023-04-16T09:01:26;3.07;;;2.77;;
1000;SDS011;489;47.806;12.858;2023-04-16T09:03:29;3.33;;;3.03;;
1000;SDS011;489;47.806;12.858;2023-04-16T09:05:32;2.87;;;2.67;;
1000;SDS011;489;47.806;12.858;2023-04-16T09:07:34;3.73;;;3.50;;
1000;SDS011;489;47.806;12.858;2023-04-16T09:09:37;4.00;;;3.67;;
1000;SDS011;489;47.806;12.858;2023-04-16T09:11:58;2.97;;;2.77;;
1000;SDS011;489;47.806;12.858;2023-04-16T09:14:00;3.80;;;3.07;;
1000;SDS011;489;47.806;12.858;2023-04-16T09:16:02;3.30;;;3.00;;
1000;SDS011;489;47.806;12.858;2023-04-16T09:18:05;2.70;;;2.50;;
1000;SDS011;489;47.806;12.858;2023-04-16T09:20:08;2.43;;;2.23;;
1000;SDS011;489;47.806;12.858;2023-04-16T09:22:11;4.43;;;3.00;;
1000;SDS011;489;47.806;12.858;2023-04-16T09:24:14;3.47;;;2.70;;
1000;SDS011;489;47.806;12.858;2023-04-16T09:26:16;2.83;;;2.63;;
1000;SDS011;489;47.806;12.858;2023-04-16T09:30:42;2.37;;;2.17;;
1000;SDS011;489;47.806;12.858;2023-04-16T09:32:44;3.40;;;3.10;;
1000;SDS011;489;47.806;12.858;2023-04-16T09:34:57;2.47;;;2.27;;
1000;SDS011;489;47.806;12.858;2023-04-16T09:37:15;3.20;;;3.00;;
1000;SDS011;489;47.806;12.858;2023-04-16T09:39:17;2.70;;;2.50;;
1000;SDS011;489;47.806;12.858;2023-04-16T09:41:23;3.10;;;2.90;;
1000;SDS011;489;47.806;12.858;2023-04-16T09:43:26;3.70;;;3.40;;
1000;SDS011;489;47.806;12.858;2023-04-16T09:45:30;3.23;;;2.80;;
1000;SDS011;489;47.806;12.858;2023-04-16T09:47:39;2.77;;;2.57;;
1000;SDS011;489;47.806;12.858;2023-04-16T09:49:43;3.40;;;3.20;;
1000;SDS011;489;47.806;12.858;2023-04-16T09:51:47;2.67;;;2.13;;
1000;SDS011;489;47.806;12.858;2023-04-16T09:53:55;1.63;;;1.53;;
1000;SDS011;489;47.806;12.858;2023-04-16T09:55:58;5.23;;;4.83;;
1000;SDS011;489;47.806;12.858;2023-04-16T09:58:00;3.63;;;3.33;;
1000;SDS011;489;47.806;12.858;2023-04-16T10:00:03;3.63;;;3.07;;
1000;SDS011;489;47.806;12.858;2023-04-16T10:02:06;4.20;;;3.90;;
1000;SDS011;489;47.806;12.858;2023-04-16T10:04:09;3.03;;;2.83;;
1000;SDS011;489;47.806;12.858;2023-04-16T10:06:13;6.10;;;5.50;;
1000;SDS011;489;47.806;12.858;2023-04-16T10:08:17;2.20;;;2.00;;
1000;SDS011;489;47.806;12.858;2023-04-16T10:10:19;3.67;;;3.37;;
1000;SDS011;489;47.806;12.858;2023-04-16T10:12:21;4.17;;;3.87;;
1000;SDS011;489;47.806;12.858;2023-04-16T10:14:23;3.20;;;2.70;;
1000;SDS011;489;47.806;12.858;2023-04-16T10:16:25;3.40;;;3.10;;
1000;SDS011;489;47.806;12.858;2023-04-16T10:18:27;3.07;;;2.87;;
1000;SDS011;489;47.806;12.858;2023-04-16T10:20:29;4.13;;;3.83;;
1000;SDS011;489;47.806;12.858;2023-04-16T10:22:31;3.70;;;3.40;;
1000;SDS011;489;47.806;12.858;2023-04-16T10:24:35;3.07;;;2.77;;
1000;SDS011;489;47.806;12.858;2023-04-16T10:26:37;4.93;;;4.53;;
1000;SDS011;489;47.806;12.858;2023-04-16T10:28:39;4.03;;;3.73;;
1000;SDS011;489;47.806;12.858;2023-04-16T10:30:42;3.73;;;3.30;;
1000;SDS011;489;47.806;12.858;2023-04-16T10:32:51;4.00;;;3.70;;
1000;SDS011;489;47.806;12.858;2023-04-16T10:34:54;4.53;;;4.20;;
1000;SDS011;489;47.806;12.858;2023-04-16T10:36:56;5.70;;;5.27;;
1000;SDS011;489;47.806;12.858;2023-04-16T10:38:58;2.67;;;2.47;;
1000;SDS011;489;47.806;12.858;2023-04-16T10:41:03;2.77;;;2.57;;
1000;SDS011;489;47.806;12.858;2023-04-16T10:43:06;3.27;;;3.00;;
1000;SDS011;489;47.806;12.858;2023-04-16T10:45:09;3.00;;;2.80;;
1000;SDS011;489;47.806;12.858;2023-04-16T10:47:30;2.80;;;2.60;;
1000;SDS011;489;47.806;12.858;2023-04-16T10:49:32;2.70;;;2.50;;
1000;SDS011;489;47.806;12.858;2023-04-16T10:51:36;2.23;;;2.00;;
1000;SDS011;489;47.806;12.858;2023-04-16T10:53:38;1.87;;;1.77;;
1000;SDS011;489;47.806;12.858;2023-04-16T10:55:40;3.37;;;3.10;;
1000;SDS011;489;47.806;12.858;2023-04-16T10:57:44;2.53;;;2.33;;
1000;SDS011;489;47.806;12.858;2023-04-16T10:59:50;2.40;;;2.20;;
1000;SDS011;489;47.806;12.858;2023-04-16T11:01:53;2.13;;;2.03;;
1000;SDS011;489;47.806;12.858;2023-04-16T11:03:57;1.87;;;1.77;;
1000;SDS011;489;47.806;12.858;2023-04-16T11:06:10;1.87;;;1.77;;
1000;SDS011;489;47.806;12.858;2023-04-16T11:08:14;2.30;;;2.10;;
1000;SDS011;489;47.806;12.858;2023-04-16T11:10:16;2.53;;;2.33;;
1000;SDS011;489;47.806;12.858;2023-04-16T11:12:19;2.80;;;2.60;;
1000;SDS011;489;47.806;12.858;2023-04-16T11:14:23;2.07;;;1.97;;
1000;SDS011;489;47.806;12.858;2023-04-16T11:16:25;2.27;;;2.07;;
1000;SDS011;489;47.806;12.858;2023-04-16T11:18:30;2.30;;;2.17;;
1000;SDS011;489;47.806;12.858;2023-04-16T11:20:32;2.20;;;2.00;;
1000;SDS011;489;47.806;12.858;2023-04-16T11:22:34;2.70;;;2.50;;
1000;SDS011;489;47.806;12.858;2023-04-16T11:24:36;2.40;;;2.23;;
1000;SDS011;489;47.806;12.858;2023-04-16T11:26:40;1.80;;;1.70;;
1000;SDS011;489;47.806;12.858;2023-04-16T11:28:42;2.77;;;2.57;;
1000;SDS011;489;47.806;12.858;2023-04-16T11:30:45;3.87;;;3.57;;
1000;SDS011;489;47.806;12.858;2023-04-16T11:32:47;2.50;;;2.30;;
1000;SDS011;489;47.806;12.858;2023-04-16T11:34:49;2.90;;;2.60;;
1000;SDS011;489;47.806;12.858;2023-04-16T11:36:51;2.83;;;2.63;;
1000;SDS011;489;47.806;12.858;2023-04-16T11:38:59;2.83;;;2.63;;
1000;SDS011;489;47.806;12.858;2023-04-16T11:41:02;3.27;;;3.00;;
1000;SDS011;489;47.806;12.858;2023-04-16T11:43:11;2.17;;;2.07;;
1000;SDS011;489;47.806;12.858;2023-04-16T11:45:14;4.40;;;4.10;;
1000;SDS011;489;47.806;12.858;2023-04-16T11:47:20;3.70;;;3.40;;
1000;SDS011;489;47.806;12.858;2023-04-16T11:49:28;3.10;;;2.87;;
1000;SDS011;489;47.806;12.858;2023-04-16T11:51:31;2.87;;;2.67;;
1000;SDS011;489;47.806;12.858;2023-04-16T11:53:33;1.70;;;1.60;;
1000;SDS011;489;47.806;12.858;2023-04-16T11:55:41;1.60;;;1.50;;
1000;SDS011;489;47.806;12.858;2023-04-16T11:57:45;2.37;;;2.17;;
1000;SDS011;489;47.806;12.858;2023-04-16T11:59:47;2.20;;;2.00;;
1000;SDS011;489;47.806;12.858;2023-04-16T12:01:49;2.50;;;2.30;;
1000;SDS011;489;47.806;12.858;2023-04-16T12:03:59;2.17;;;2.07;;
1000;SDS011;489;47.806;12.858;2023-04-16T12:06:06;2.17;;;2.07;;
1000;SDS011;489;47.806;12.858;2023-04-16T12:08:09;2.03;;;1.90;;
1000;SDS011;489;47.806;12.858;2023-04-16T12:10:12;1.60;;;1.50;;
1000;SDS011;489;47.806;12.858;2023-04-16T12:12:26;1.80;;;1.70;;
1000;SDS011;489;47.806;12.858;2023-04-16T12:14:30;1.50;;;1.40;;
1000;SDS011;489;47.806;12.858;2023-04-16T12:16:32;1.50;;;1.40;;
1000;SDS011;489;47.806;12.858;2023-04-16T12:18:34;1.93;;;1.73;;
1000;SDS011;489;47.806;12.858;2023-04-16T12:20:39;1.93;;;1.80;;
1000;SDS011;489;47.806;12.858;2023-04-16T12:22:43;2.07;;;1.87;;
1000;SDS011;489;47.806;12.858;2023-04-16T12:24:46;1.90;;;1.80;;
1000;SDS011;489;47.806;12.858;2023-04-16T12:26:50;1.40;;;1.30;;
1000;SDS011;489;47.806;12.858;2023-04-16T12:28:56;2.60;;;2.40;;
1000;SDS011;489;47.806;12.858;2023-04-16T12:31:15;3.13;;;2.77;;
1000;SDS011;489;47.806;12.858;2023-04-16T12:33:17;1.90;;;1.50;;
1000;SDS011;489;47.806;12.858;2023-04-16T12:35:31;1.67;;;1.57;;
1000;SDS011;489;47.806;12.858;2023-04-16T12:37:35;2.70;;;2.33;;
1000;SDS011;489;47.806;12.858;2023-04-16T12:39:37;2.90;;;2.70;;
1000;SDS011;489;47.806;12.858;2023-04-16T12:41:39;2.50;;;2.40;;
1000;SDS011;489;47.806;12.858;2023-04-16T12:43:42;1.77;;;1.67;;
1000;SDS011;489;47.806;12.858;2023-04-16T12:45:44;2.13;;;2.03;;
1000;SDS011;489;47.806;12.858;2023-04-16T12:47:46;1.90;;;1.80;;
1000;SDS011;489;47.806;12.858;2023-04-16T12:49:50;1.50;;;1.40;;